sensor_id;sensor_type;location;lat;lon;timestamp;P1;durP1;ratioP1;P2;durP2;ratioP2
37169;SDS011;23062;13.952;100.608;2024-01-15T00:04:41;19.90;;;16.36;;
37169;SDS011;23062;13.952;100.608;2024-01-15T00:09:24;20.87;;;16.86;;
37169;SDS011;23062;13.952;100.608;2024-01-15T00:14:12;18.60;;;14.45;;
37169;SDS011;23062;13.952;100.608;2024-01-15T00:18:59;18.71;;;14.48;;
37169;SDS011;23062;13.952;100.608;2024-01-15T00:23:44;19.58;;;15.91;;
37169;SDS011;23062;13.952;100.608;2024-01-15T00:28:23;18.19;;;14.94;;
37169;SDS011;23062;13.952;100.608;2024-01-15T00:33:09;17.92;;;14.51;;
37169;SDS011;23062;13.952;100.608;2024-01-15T00:37:53;18.40;;;14.03;;
37169;SDS011;23062;13.952;100.608;2024-01-15T00:42:37;20.65;;;16.17;;
37169;SDS011;23062;13.952;100.608;2024-01-15T00:47:15;24.58;;;18.53;;
37169;SDS011;23062;13.952;100.608;2024-01-15T00:51:59;22.04;;;16.54;;
37169;SDS011;23062;13.952;100.608;2024-01-15T00:56:42;22.07;;;17.04;;
37169;SDS011;23062;13.952;100.608;2024-01-15T01:01:23;23.46;;;18.01;;
37169;SDS011;23062;13.952;100.608;2024-01-15T01:06:08;22.56;;;17.04;;
37169;SDS011;23062;13.952;100.608;2024-01-15T01:10:47;17.61;;;14.06;;
37169;SDS011;23062;13.952;100.608;2024-01-15T01:15:28;17.69;;;14.56;;
37169;SDS011;23062;13.952;100.608;2024-01-15T01:20:11;16.59;;;14.29;;
37169;SDS011;23062;13.952;100.608;2024-01-15T01:24:49;19.42;;;15.87;;
37169;SDS011;23062;13.952;100.608;2024-01-15T01:29:34;18.78;;;14.72;;
37169;SDS011;23062;13.952;100.608;2024-01-15T01:34:10;19.39;;;14.11;;
37169;SDS011;23062;13.952;100.608;2024-01-15T01:38:55;21.05;;;15.78;;
37169;SDS011;23062;13.952;100.608;2024-01-15T01:43:39;20.09;;;13.77;;
37169;SDS011;23062;13.952;100.608;2024-01-15T01:48:23;18.12;;;13.18;;
37169;SDS011;23062;13.952;100.608;2024-01-15T01:53:07;18.21;;;13.20;;
37169;SDS011;23062;13.952;100.608;2024-01-15T01:57:50;17.15;;;12.69;;
37169;SDS011;23062;13.952;100.608;2024-01-15T02:02:35;17.85;;;12.73;;
37169;SDS011;23062;13.952;100.608;2024-01-15T02:07:18;18.20;;;12.82;;
37169;SDS011;23062;13.952;100.608;2024-01-15T02:12:02;18.12;;;12.80;;
37169;SDS011;23062;13.952;100.608;2024-01-15T02:16:47;18.44;;;12.75;;
37169;SDS011;23062;13.952;100.608;2024-01-15T02:21:32;18.79;;;12.70;;
37169;SDS011;23062;13.952;100.608;2024-01-15T02:26:16;18.47;;;13.26;;
37169;SDS011;23062;13.952;100.608;2024-01-15T02:31:01;18.12;;;12.80;;
37169;SDS011;23062;13.952;100.608;2024-01-15T02:35:43;18.64;;;12.79;;
37169;SDS011;23062;13.952;100.608;2024-01-15T02:40:22;17.14;;;11.80;;
37169;SDS011;23062;13.952;100.608;2024-01-15T02:45:05;18.32;;;12.85;;
37169;SDS011;23062;13.952;100.608;2024-01-15T02:49:51;17.08;;;12.44;;
37169;SDS011;23062;13.952;100.608;2024-01-15T02:54:31;16.70;;;11.32;;
37169;SDS011;23062;13.952;100.608;2024-01-15T02:59:12;18.39;;;12.35;;
37169;SDS011;23062;13.952;100.608;2024-01-15T03:03:56;17.40;;;12.38;;
37169;SDS011;23062;13.952;100.608;2024-01-15T03:08:41;18.71;;;12.42;;
37169;SDS011;23062;13.952;100.608;2024-01-15T03:13:24;16.31;;;11.35;;
37169;SDS011;23062;13.952;100.608;2024-01-15T03:18:11;16.69;;;10.93;;
37169;SDS011;23062;13.952;100.608;2024-01-15T03:22:56;16.04;;;11.43;;
37169;SDS011;23062;13.952;100.608;2024-01-15T03:27:41;16.06;;;10.39;;
37169;SDS011;23062;13.952;100.608;2024-01-15T03:32:33;18.21;;;12.05;;
37169;SDS011;23062;13.952;100.608;2024-01-15T03:37:17;17.40;;;11.48;;
37169;SDS011;23062;13.952;100.608;2024-01-15T03:41:53;18.02;;;12.53;;
37169;SDS011;23062;13.952;100.608;2024-01-15T03:46:37;18.72;;;12.04;;
37169;SDS011;23062;13.952;100.608;2024-01-15T03:51:23;16.07;;;10.92;;
37169;SDS011;23062;13.952;100.608;2024-01-15T03:56:07;19.00;;;12.49;;
37169;SDS011;23062;13.952;100.608;2024-01-15T04:00:50;19.79;;;13.06;;
37169;SDS011;23062;13.952;100.608;2024-01-15T04:05:34;17.01;;;11.53;;
37169;SDS011;23062;13.952;100.608;2024-01-15T04:10:16;18.55;;;13.04;;
37169;SDS011;23062;13.952;100.608;2024-01-15T04:15:03;17.44;;;11.49;;
37169;SDS011;23062;13.952;100.608;2024-01-15T04:19:48;18.42;;;12.63;;
37169;SDS011;23062;13.952;100.608;2024-01-15T04:24:32;16.59;;;11.04;;
37169;SDS011;23062;13.952;100.608;2024-01-15T04:29:09;19.82;;;12.68;;
37169;SDS011;23062;13.952;100.608;2024-01-15T04:33:46;16.08;;;10.53;;
37169;SDS011;23062;13.952;100.608;2024-01-15T04:38:28;14.60;;;9.55;;
37169;SDS011;23062;13.952;100.608;2024-01-15T04:43:13;16.74;;;10.55;;
37169;SDS011;23062;13.952;100.608;2024-01-15T04:47:52;16.70;;;10.54;;
37169;SDS011;23062;13.952;100.608;2024-01-15T04:52:36;16.21;;;10.04;;
37169;SDS011;23062;13.952;100.608;2024-01-15T04:57:21;16.17;;;10.55;;
37169;SDS011;23062;13.952;100.608;2024-01-15T05:02:04;16.98;;;10.60;;
37169;SDS011;23062;13.952;100.608;2024-01-15T05:06:49;15.91;;;10.64;;
37169;SDS011;23062;13.952;100.608;2024-01-15T05:11:32;15.28;;;10.63;;
37169;SDS011;23062;13.952;100.608;2024-01-15T05:16:17;14.67;;;10.10;;
37169;SDS011;23062;13.952;100.608;2024-01-15T05:21:06;13.98;;;9.02;;
37169;SDS011;23062;13.952;100.608;2024-01-15T05:25:43;15.53;;;10.02;;
37169;SDS011;23062;13.952;100.608;2024-01-15T05:30:26;16.64;;;10.67;;
37169;SDS011;23062;13.952;100.608;2024-01-15T05:35:10;17.01;;;11.14;;
37169;SDS011;23062;13.952;100.608;2024-01-15T05:39:54;14.67;;;9.57;;
37169;SDS011;23062;13.952;100.608;2024-01-15T05:44:38;14.75;;;10.12;;
37169;SDS011;23062;13.952;100.608;2024-01-15T05:49:23;13.51;;;8.52;;
37169;SDS011;23062;13.952;100.608;2024-01-15T05:54:07;13.41;;;8.50;;
37169;SDS011;23062;13.952;100.608;2024-01-15T05:58:52;14.23;;;8.54;;
37169;SDS011;23062;13.952;100.608;2024-01-15T06:03:35;12.98;;;8.01;;
37169;SDS011;23062;13.952;100.608;2024-01-15T06:08:11;14.39;;;9.65;;
37169;SDS011;23062;13.952;100.608;2024-01-15T06:12:56;15.04;;;10.19;;
37169;SDS011;23062;13.952;100.608;2024-01-15T06:17:39;12.44;;;7.49;;
37169;SDS011;23062;13.952;100.608;2024-01-15T06:22:25;14.64;;;9.56;;
37169;SDS011;23062;13.952;100.608;2024-01-15T06:27:07;13.75;;;8.58;;
37169;SDS011;23062;13.952;100.608;2024-01-15T06:31:51;13.90;;;9.15;;
37169;SDS011;23062;13.952;100.608;2024-01-15T06:36:36;13.81;;;8.59;;
37169;SDS011;23062;13.952;100.608;2024-01-15T06:41:13;12.31;;;8.15;;
37169;SDS011;23062;13.952;100.608;2024-01-15T06:45:57;13.51;;;8.13;;
37169;SDS011;23062;13.952;100.608;2024-01-15T06:50:39;13.94;;;8.62;;
37169;SDS011;23062;13.952;100.608;2024-01-15T06:55:23;11.67;;;7.61;;
37169;SDS011;23062;13.952;100.608;2024-01-15T07:00:07;12.40;;;7.63;;
37169;SDS011;23062;13.952;100.608;2024-01-15T07:04:52;12.90;;;8.13;;
37169;SDS011;23062;13.952;100.608;2024-01-15T07:09:28;12.74;;;8.10;;
37169;SDS011;23062;13.952;100.608;2024-01-15T07:14:12;11.78;;;7.09;;
37169;SDS011;23062;13.952;100.608;2024-01-15T07:18:55;13.05;;;8.17;;
37169;SDS011;23062;13.952;100.608;2024-01-15T07:23:38;11.46;;;6.62;;
37169;SDS011;23062;13.952;100.608;2024-01-15T07:28:23;12.11;;;7.72;;
37169;SDS011;23062;13.952;100.608;2024-01-15T07:33:03;12.42;;;7.24;;
37169;SDS011;23062;13.952;100.608;2024-01-15T07:37:46;13.08;;;7.79;;
37169;SDS011;23062;13.952;100.608;2024-01-15T07:42:28;13.36;;;7.85;;
37169;SDS011;23062;13.952;100.608;2024-01-15T07:47:13;9.35;;;5.66;;
37169;SDS011;23062;13.952;100.608;2024-01-15T07:51:50;11.89;;;6.71;;
37169;SDS011;23062;13.952;100.608;2024-01-15T07:56:57;10.98;;;6.11;;
37169;SDS011;23062;13.952;100.608;2024-01-15T08:01:37;11.85;;;6.71;;
37169;SDS011;23062;13.952;100.608;2024-01-15T08:06:15;11.37;;;6.19;;
37169;SDS011;23062;13.952;100.608;2024-01-15T08:10:52;12.72;;;7.30;;
37169;SDS011;23062;13.952;100.608;2024-01-15T08:15:36;12.81;;;7.89;;
37169;SDS011;23062;13.952;100.608;2024-01-15T08:20:19;9.95;;;5.63;;
37169;SDS011;23062;13.952;100.608;2024-01-15T08:25:04;10.72;;;5.65;;
37169;SDS011;23062;13.952;100.608;2024-01-15T08:29:49;9.85;;;5.61;;
37169;SDS011;23062;13.952;100.608;2024-01-15T08:34:30;10.60;;;6.18;;
37169;SDS011;23062;13.952;100.608;2024-01-15T08:39:07;9.74;;;6.14;;
37169;SDS011;23062;13.952;100.608;2024-01-15T08:43:50;8.23;;;5.00;;
37169;SDS011;23062;13.952;100.608;2024-01-15T08:48:26;11.01;;;6.67;;
37169;SDS011;23062;13.952;100.608;2024-01-15T08:53:10;8.88;;;5.55;;
37169;SDS011;23062;13.952;100.608;2024-01-15T08:57:48;12.11;;;7.24;;
37169;SDS011;23062;13.952;100.608;2024-01-15T09:02:32;10.83;;;6.08;;
37169;SDS011;23062;13.952;100.608;2024-01-15T09:07:19;11.49;;;6.63;;
37169;SDS011;23062;13.952;100.608;2024-01-15T09:12:11;11.35;;;7.14;;
37169;SDS011;23062;13.952;100.608;2024-01-15T09:16:57;11.29;;;7.13;;
37169;SDS011;23062;13.952;100.608;2024-01-15T09:21:33;12.50;;;7.65;;
37169;SDS011;23062;13.952;100.608;2024-01-15T09:26:16;11.83;;;7.10;;
37169;SDS011;23062;13.952;100.608;2024-01-15T09:31:00;13.65;;;8.16;;
37169;SDS011;23062;13.952;100.608;2024-01-15T09:35:41;10.33;;;6.51;;
37169;SDS011;23062;13.952;100.608;2024-01-15T09:40:26;10.91;;;6.50;;
37169;SDS011;23062;13.952;100.608;2024-01-15T09:45:13;12.94;;;8.15;;
37169;SDS011;23062;13.952;100.608;2024-01-15T09:49:51;11.81;;;7.54;;
37169;SDS011;23062;13.952;100.608;2024-01-15T09:54:37;10.20;;;6.87;;
37169;SDS011;23062;13.952;100.608;2024-01-15T09:59:20;11.30;;;7.37;;
37169;SDS011;23062;13.952;100.608;2024-01-15T10:04:03;12.20;;;7.83;;
37169;SDS011;23062;13.952;100.608;2024-01-15T10:08:41;10.93;;;7.82;;
37169;SDS011;23062;13.952;100.608;2024-01-15T10:13:18;12.03;;;7.93;;
37169;SDS011;23062;13.952;100.608;2024-01-15T10:18:03;11.49;;;7.94;;
37169;SDS011;23062;13.952;100.608;2024-01-15T10:22:42;11.52;;;7.42;;
37169;SDS011;23062;13.952;100.608;2024-01-15T10:27:18;15.35;;;9.58;;
37169;SDS011;23062;13.952;100.608;2024-01-15T10:31:55;15.43;;;9.60;;
37169;SDS011;23062;13.952;100.608;2024-01-15T10:36:42;12.96;;;8.00;;
37169;SDS011;23062;13.952;100.608;2024-01-15T10:41:20;16.77;;;10.16;;
37169;SDS011;23062;13.952;100.608;2024-01-15T10:46:01;11.27;;;7.51;;
37169;SDS011;23062;13.952;100.608;2024-01-15T10:50:47;12.28;;;7.51;;
37169;SDS011;23062;13.952;100.608;2024-01-15T10:55:30;11.87;;;8.04;;
37169;SDS011;23062;13.952;100.608;2024-01-15T11:00:08;12.99;;;8.54;;
37169;SDS011;23062;13.952;100.608;2024-01-15T11:04:55;12.97;;;8.54;;
37169;SDS011;23062;13.952;100.608;2024-01-15T11:09:32;11.76;;;7.48;;
37169;SDS011;23062;13.952;100.608;2024-01-15T11:19:19;11.21;;;6.96;;
37169;SDS011;23062;13.952;100.608;2024-01-15T11:24:03;13.11;;;8.04;;
37169;SDS011;23062;13.952;100.608;2024-01-15T11:28:48;13.11;;;8.04;;
37169;SDS011;23062;13.952;100.608;2024-01-15T11:33:35;15.00;;;9.11;;
37169;SDS011;23062;13.952;100.608;2024-01-15T11:38:26;12.48;;;8.04;;
37169;SDS011;23062;13.952;100.608;2024-01-15T11:43:10;11.95;;;7.52;;
37169;SDS011;23062;13.952;100.608;2024-01-15T11:48:02;13.79;;;8.59;;
37169;SDS011;23062;13.952;100.608;2024-01-15T11:52:40;12.56;;;8.06;;
37169;SDS011;23062;13.952;100.608;2024-01-15T11:57:19;12.66;;;8.08;;
37169;SDS011;23062;13.952;100.608;2024-01-15T12:02:03;12.03;;;7.54;;
37169;SDS011;23062;13.952;100.608;2024-01-15T12:06:46;13.30;;;8.08;;
37169;SDS011;23062;13.952;100.608;2024-01-15T12:11:31;12.40;;;7.48;;
37169;SDS011;23062;13.952;100.608;2024-01-15T12:16:13;11.74;;;8.01;;
37169;SDS011;23062;13.952;100.608;2024-01-15T12:20:57;14.64;;;9.03;;
37169;SDS011;23062;13.952;100.608;2024-01-15T12:25:41;11.44;;;7.40;;
37169;SDS011;23062;13.952;100.608;2024-01-15T12:30:28;13.77;;;9.50;;
37169;SDS011;23062;13.952;100.608;2024-01-15T12:35:14;11.26;;;7.36;;
37169;SDS011;23062;13.952;100.608;2024-01-15T12:39:59;12.35;;;7.86;;
37169;SDS011;23062;13.952;100.608;2024-01-15T12:44:46;12.87;;;8.37;;
37169;SDS011;23062;13.952;100.608;2024-01-15T12:49:32;12.26;;;8.37;;
37169;SDS011;23062;13.952;100.608;2024-01-15T12:54:09;13.57;;;8.40;;
37169;SDS011;23062;13.952;100.608;2024-01-15T12:58:54;13.58;;;9.45;;
37169;SDS011;23062;13.952;100.608;2024-01-15T13:03:38;14.11;;;8.91;;
37169;SDS011;23062;13.952;100.608;2024-01-15T13:08:21;11.79;;;7.87;;
37169;SDS011;23062;13.952;100.608;2024-01-15T13:13:05;11.57;;;7.84;;
37169;SDS011;23062;13.952;100.608;2024-01-15T13:17:42;11.82;;;7.35;;
37169;SDS011;23062;13.952;100.608;2024-01-15T13:22:20;12.97;;;8.92;;
37169;SDS011;23062;13.952;100.608;2024-01-15T13:27:05;13.51;;;9.43;;
37169;SDS011;23062;13.952;100.608;2024-01-15T13:31:43;12.89;;;8.38;;
37169;SDS011;23062;13.952;100.608;2024-01-15T13:36:20;11.65;;;7.84;;
37169;SDS011;23062;13.952;100.608;2024-01-15T13:41:05;13.86;;;9.38;;
37169;SDS011;23062;13.952;100.608;2024-01-15T13:45:43;13.93;;;8.87;;
37169;SDS011;23062;13.952;100.608;2024-01-15T13:50:27;10.39;;;7.29;;
37169;SDS011;23062;13.952;100.608;2024-01-15T13:55:11;12.67;;;8.33;;
37169;SDS011;23062;13.952;100.608;2024-01-15T13:59:55;12.12;;;8.33;;
37169;SDS011;23062;13.952;100.608;2024-01-15T14:04:40;11.49;;;8.32;;
37169;SDS011;23062;13.952;100.608;2024-01-15T14:09:23;12.66;;;8.85;;
37169;SDS011;23062;13.952;100.608;2024-01-15T14:14:01;12.06;;;8.32;;
37169;SDS011;23062;13.952;100.608;2024-01-15T14:18:43;11.45;;;7.79;;
37169;SDS011;23062;13.952;100.608;2024-01-15T14:23:27;10.29;;;7.27;;
37169;SDS011;23062;13.952;100.608;2024-01-15T14:28:05;10.87;;;7.79;;
37169;SDS011;23062;13.952;100.608;2024-01-15T14:32:48;11.96;;;7.78;;
37169;SDS011;23062;13.952;100.608;2024-01-15T14:37:30;10.22;;;6.73;;
37169;SDS011;23062;13.952;100.608;2024-01-15T14:42:14;10.57;;;6.76;;
37169;SDS011;23062;13.952;100.608;2024-01-15T14:46:58;11.86;;;7.75;;
37169;SDS011;23062;13.952;100.608;2024-01-15T14:51:42;11.88;;;7.76;;
37169;SDS011;23062;13.952;100.608;2024-01-15T14:56:27;11.84;;;7.75;;
37169;SDS011;23062;13.952;100.608;2024-01-15T15:01:10;10.11;;;6.71;;
37169;SDS011;23062;13.952;100.608;2024-01-15T15:05:54;11.26;;;7.23;;
37169;SDS011;23062;13.952;100.608;2024-01-15T15:10:32;11.83;;;7.75;;
37169;SDS011;23062;13.952;100.608;2024-01-15T15:15:18;10.64;;;7.22;;
37169;SDS011;23062;13.952;100.608;2024-01-15T15:20:02;11.18;;;7.21;;
37169;SDS011;23062;13.952;100.608;2024-01-15T15:24:44;11.16;;;7.72;;
37169;SDS011;23062;13.952;100.608;2024-01-15T15:29:28;12.29;;;8.24;;
37169;SDS011;23062;13.952;100.608;2024-01-15T15:34:12;12.85;;;8.24;;
37169;SDS011;23062;13.952;100.608;2024-01-15T15:38:57;11.16;;;7.72;;
37169;SDS011;23062;13.952;100.608;2024-01-15T15:43:41;11.69;;;7.72;;
37169;SDS011;23062;13.952;100.608;2024-01-15T15:48:23;10.58;;;7.72;;
37169;SDS011;23062;13.952;100.608;2024-01-15T15:52:59;10.53;;;7.19;;
37169;SDS011;23062;13.952;100.608;2024-01-15T15:57:37;11.08;;;7.70;;
37169;SDS011;23062;13.952;100.608;2024-01-15T16:02:15;10.52;;;7.19;;
37169;SDS011;23062;13.952;100.608;2024-01-15T16:06:58;11.05;;;7.18;;
37169;SDS011;23062;13.952;100.608;2024-01-15T16:11:43;10.50;;;7.18;;
37169;SDS011;23062;13.952;100.608;2024-01-15T16:16:20;11.05;;;7.18;;
37169;SDS011;23062;13.952;100.608;2024-01-15T16:21:05;11.05;;;7.18;;
37169;SDS011;23062;13.952;100.608;2024-01-15T16:25:42;10.49;;;7.18;;
37169;SDS011;23062;13.952;100.608;2024-01-15T16:30:24;9.95;;;6.67;;
37169;SDS011;23062;13.952;100.608;2024-01-15T16:35:09;11.05;;;7.18;;
37169;SDS011;23062;13.952;100.608;2024-01-15T16:39:52;9.95;;;6.67;;
37169;SDS011;23062;13.952;100.608;2024-01-15T16:44:35;9.93;;;6.67;;
37169;SDS011;23062;13.952;100.608;2024-01-15T16:49:17;9.94;;;6.67;;
37169;SDS011;23062;13.952;100.608;2024-01-15T16:55:28;11.62;;;7.70;;
37169;SDS011;23062;13.952;100.608;2024-01-15T17:00:11;9.39;;;6.16;;
37169;SDS011;23062;13.952;100.608;2024-01-15T17:04:48;8.29;;;5.64;;
37169;SDS011;23062;13.952;100.608;2024-01-15T17:09:32;9.94;;;6.67;;
37169;SDS011;23062;13.952;100.608;2024-01-15T17:14:16;9.92;;;7.18;;
37169;SDS011;23062;13.952;100.608;2024-01-15T17:18:52;9.39;;;6.15;;
37169;SDS011;23062;13.952;100.608;2024-01-15T17:23:37;11.01;;;7.69;;
37169;SDS011;23062;13.952;100.608;2024-01-15T17:28:22;9.36;;;6.66;;
37169;SDS011;23062;13.952;100.608;2024-01-15T17:33:06;12.66;;;8.20;;
37169;SDS011;23062;13.952;100.608;2024-01-15T17:37:49;10.43;;;6.65;;
37169;SDS011;23062;13.952;100.608;2024-01-15T17:42:34;11.55;;;7.68;;
37169;SDS011;23062;13.952;100.608;2024-01-15T17:47:15;9.88;;;7.17;;
37169;SDS011;23062;13.952;100.608;2024-01-15T17:51:52;12.05;;;8.18;;
37169;SDS011;23062;13.952;100.608;2024-01-15T17:56:37;10.97;;;7.68;;
37169;SDS011;23062;13.952;100.608;2024-01-15T18:01:21;9.83;;;7.15;;
37169;SDS011;23062;13.952;100.608;2024-01-15T18:06:06;12.58;;;9.20;;
37169;SDS011;23062;13.952;100.608;2024-01-15T18:10:43;11.47;;;7.67;;
37169;SDS011;23062;13.952;100.608;2024-01-15T18:15:22;13.06;;;8.68;;
37169;SDS011;23062;13.952;100.608;2024-01-15T18:20:07;14.18;;;10.21;;
37169;SDS011;23062;13.952;100.608;2024-01-15T18:24:52;11.64;;;8.09;;
37169;SDS011;23062;13.952;100.608;2024-01-15T18:29:29;11.96;;;8.16;;
37169;SDS011;23062;13.952;100.608;2024-01-15T18:34:08;13.51;;;10.19;;
37169;SDS011;23062;13.952;100.608;2024-01-15T18:38:51;13.54;;;9.17;;
37169;SDS011;23062;13.952;100.608;2024-01-15T18:43:38;13.01;;;9.68;;
37169;SDS011;23062;13.952;100.608;2024-01-15T18:48:18;14.07;;;9.68;;
37169;SDS011;23062;13.952;100.608;2024-01-15T18:53:02;13.54;;;10.19;;
37169;SDS011;23062;13.952;100.608;2024-01-15T18:57:48;11.61;;;8.08;;
37169;SDS011;23062;13.952;100.608;2024-01-15T19:02:32;14.08;;;10.19;;
37169;SDS011;23062;13.952;100.608;2024-01-15T19:07:16;15.74;;;10.71;;
37169;SDS011;23062;13.952;100.608;2024-01-15T19:11:59;14.06;;;10.19;;
37169;SDS011;23062;13.952;100.608;2024-01-15T19:16:39;11.97;;;8.68;;
37169;SDS011;23062;13.952;100.608;2024-01-15T19:21:21;12.21;;;8.10;;
37169;SDS011;23062;13.952;100.608;2024-01-15T19:26:01;15.27;;;10.73;;
37169;SDS011;23062;13.952;100.608;2024-01-15T19:30:42;15.25;;;11.23;;
37169;SDS011;23062;13.952;100.608;2024-01-15T19:35:23;15.78;;;11.23;;
37169;SDS011;23062;13.952;100.608;2024-01-15T19:40:04;13.06;;;9.19;;
37169;SDS011;23062;13.952;100.608;2024-01-15T19:44:42;14.15;;;9.70;;
37169;SDS011;23062;13.952;100.608;2024-01-15T19:49:26;15.29;;;11.24;;
37169;SDS011;23062;13.952;100.608;2024-01-15T19:54:02;14.73;;;10.22;;
37169;SDS011;23062;13.952;100.608;2024-01-15T19:58:39;13.04;;;9.18;;
37169;SDS011;23062;13.952;100.608;2024-01-15T20:03:23;16.30;;;11.73;;
37169;SDS011;23062;13.952;100.608;2024-01-15T20:13:09;14.62;;;10.19;;
37169;SDS011;23062;13.952;100.608;2024-01-15T20:17:53;15.63;;;10.68;;
37169;SDS011;23062;13.952;100.608;2024-01-15T20:22:37;13.44;;;9.66;;
37169;SDS011;23062;13.952;100.608;2024-01-15T20:27:21;15.98;;;10.89;;
37169;SDS011;23062;13.952;100.608;2024-01-15T20:32:00;17.42;;;12.30;;
37169;SDS011;23062;13.952;100.608;2024-01-15T20:36:43;16.99;;;12.66;;
37169;SDS011;23062;13.952;100.608;2024-01-15T20:41:28;17.00;;;12.15;;
37169;SDS011;23062;13.952;100.608;2024-01-15T20:46:11;18.45;;;13.13;;
37169;SDS011;23062;13.952;100.608;2024-01-15T20:50:48;18.27;;;13.09;;
37169;SDS011;23062;13.952;100.608;2024-01-15T20:55:29;17.09;;;12.55;;
37169;SDS011;23062;13.952;100.608;2024-01-15T21:00:05;17.71;;;12.57;;
37169;SDS011;23062;13.952;100.608;2024-01-15T21:04:43;16.03;;;11.54;;
37169;SDS011;23062;13.952;100.608;2024-01-15T21:09:20;18.62;;;14.05;;
37169;SDS011;23062;13.952;100.608;2024-01-15T21:19:04;23.41;;;17.85;;
37169;SDS011;23062;13.952;100.608;2024-01-15T21:23:41;23.43;;;17.24;;
37169;SDS011;23062;13.952;100.608;2024-01-15T21:28:25;20.64;;;16.17;;
37169;SDS011;23062;13.952;100.608;2024-01-15T21:33:04;21.01;;;15.66;;
37169;SDS011;23062;13.952;100.608;2024-01-15T21:37:50;22.18;;;17.06;;
37169;SDS011;23062;13.952;100.608;2024-01-15T21:42:26;21.52;;;17.02;;
37169;SDS011;23062;13.952;100.608;2024-01-15T21:47:10;22.80;;;17.47;;
37169;SDS011;23062;13.952;100.608;2024-01-15T21:51:58;21.92;;;17.97;;
37169;SDS011;23062;13.952;100.608;2024-01-15T21:56:36;21.05;;;16.90;;
37169;SDS011;23062;13.952;100.608;2024-01-15T22:01:17;19.49;;;15.89;;
37169;SDS011;23062;13.952;100.608;2024-01-15T22:06:02;19.54;;;15.90;;
37169;SDS011;23062;13.952;100.608;2024-01-15T22:10:48;21.31;;;17.34;;
37169;SDS011;23062;13.952;100.608;2024-01-15T22:15:29;19.34;;;16.34;;
37169;SDS011;23062;13.952;100.608;2024-01-15T22:20:13;20.13;;;17.69;;
37169;SDS011;23062;13.952;100.608;2024-01-15T22:24:58;19.14;;;17.91;;
37169;SDS011;23062;13.952;100.608;2024-01-15T22:29:35;18.31;;;16.88;;
37169;SDS011;23062;13.952;100.608;2024-01-15T22:34:19;18.97;;;17.32;;
37169;SDS011;23062;13.952;100.608;2024-01-15T22:39:02;16.81;;;15.88;;
37169;SDS011;23062;13.952;100.608;2024-01-15T22:43:47;16.82;;;15.43;;
37169;SDS011;23062;13.952;100.608;2024-01-15T22:48:34;17.43;;;16.85;;
37169;SDS011;23062;13.952;100.608;2024-01-15T22:53:14;16.01;;;14.77;;
37169;SDS011;23062;13.952;100.608;2024-01-15T22:57:57;18.18;;;15.57;;
37169;SDS011;23062;13.952;100.608;2024-01-15T23:02:41;16.16;;;13.08;;
37169;SDS011;23062;13.952;100.608;2024-01-15T23:07:18;15.60;;;12.31;;
37169;SDS011;23062;13.952;100.608;2024-01-15T23:12:02;14.39;;;11.39;;
37169;SDS011;23062;13.952;100.608;2024-01-15T23:16:47;16.26;;;12.48;;
37169;SDS011;23062;13.952;100.608;2024-01-15T23:21:25;14.22;;;10.48;;
37169;SDS011;23062;13.952;100.608;2024-01-15T23:26:03;15.65;;;11.07;;
37169;SDS011;23062;13.952;100.608;2024-01-15T23:30:47;16.61;;;11.56;;
37169;SDS011;23062;13.952;100.608;2024-01-15T23:35:32;15.38;;;11.13;;
37169;SDS011;23062;13.952;100.608;2024-01-15T23:40:19;14.83;;;11.13;;
37169;SDS011;23062;13.952;100.608;2024-01-15T23:44:57;13.53;;;9.48;;
37169;SDS011;23062;13.952;100.608;2024-01-15T23:49:41;15.17;;;10.70;;
37169;SDS011;23062;13.952;100.608;2024-01-15T23:54:22;13.12;;;9.51;;
37169;SDS011;23062;13.952;100.608;2024-01-15T23:59:08;14.94;;;10.14;;
